createdAt,value
2018-08-16T00:03:46.622Z,70.89
2018-08-16T00:08:41.346Z,71.07
2018-08-16T00:13:36.087Z,72.03
2018-08-16T00:18:30.875Z,72.19
2018-08-16T00:23:25.616Z,73.48
2018-08-16T00:28:20.329Z,73.13
2018-08-16T00:33:15.019Z,74.06
2018-08-16T00:38:09.819Z,72.91
2018-08-16T00:43:04.590Z,72.93
2018-08-16T00:47:59.404Z,74.09
2018-08-16T00:52:54.178Z,74.72
2018-08-16T00:57:48.963Z,75.34
2018-08-16T01:02:43.710Z,75.65
2018-08-16T01:07:38.510Z,76.54
2018-08-16T01:12:33.317Z,76.10
2018-08-16T01:17:28.110Z,75.66
2018-08-16T01:22:23.442Z,76.21
2018-08-16T01:27:18.240Z,76.21
2018-08-16T01:32:13.041Z,74.70
2018-08-16T01:37:08.073Z,74.87
2018-08-16T01:42:02.847Z,77.09
2018-08-16T01:46:57.604Z,78.28
2018-08-16T01:51:52.392Z,75.68
2018-08-16T01:56:47.207Z,75.76
2018-08-16T02:01:42.006Z,77.54
2018-08-16T02:06:36.949Z,75.76
2018-08-16T02:11:31.675Z,77.09
2018-08-16T02:16:26.880Z,75.94
2018-08-16T02:21:21.729Z,77.33
2018-08-16T02:26:16.504Z,77.31
2018-08-16T02:31:11.319Z,77.61
2018-08-16T02:36:06.383Z,77.22
2018-08-16T02:41:01.558Z,77.30
2018-08-16T02:45:56.383Z,77.53
2018-08-16T02:50:51.203Z,76.84
2018-08-16T02:55:45.934Z,78.59
2018-08-16T03:00:40.683Z,77.95
2018-08-16T03:05:35.476Z,78.37
2018-08-16T03:10:30.228Z,77.04
2018-08-16T03:15:24.978Z,78.79
2018-08-16T03:20:19.775Z,77.79
2018-08-16T03:25:14.595Z,78.56
2018-08-16T03:30:09.356Z,77.93
2018-08-16T03:35:04.280Z,78.93
2018-08-16T03:39:59.001Z,78.35
2018-08-16T03:44:53.915Z,78.83
2018-08-16T03:49:48.652Z,78.57
2018-08-16T03:54:43.359Z,79.56
2018-08-16T03:59:38.118Z,78.62
2018-08-16T04:04:32.911Z,79.08
2018-08-16T04:09:27.621Z,79.98
2018-08-16T04:14:22.279Z,78.64
2018-08-16T04:19:16.925Z,78.83
2018-08-16T04:24:11.752Z,79.24
2018-08-16T04:29:06.559Z,79.97
2018-08-16T04:34:01.264Z,79.23
2018-08-16T04:38:56.053Z,79.82
2018-08-16T04:43:50.848Z,79.72
2018-08-16T04:48:45.564Z,78.92
2018-08-16T04:53:40.345Z,77.93
2018-08-16T04:58:35.132Z,77.13
2018-08-16T05:03:29.896Z,75.31
2018-08-16T05:08:24.647Z,74.30
2018-08-16T05:13:19.351Z,74.08
2018-08-16T05:18:14.160Z,74.37
2018-08-16T05:23:08.898Z,75.27
2018-08-16T05:28:03.734Z,76.37
2018-08-16T05:32:58.536Z,75.54
2018-08-16T05:37:53.269Z,76.90
2018-08-16T05:42:48.092Z,77.62
2018-08-16T05:47:42.883Z,77.82
2018-08-16T05:52:37.763Z,79.06
2018-08-16T05:57:32.598Z,78.70
2018-08-16T06:02:30.696Z,78.32
2018-08-16T06:07:25.381Z,76.79
2018-08-16T06:12:20.237Z,77.82
2018-08-16T06:17:15.497Z,76.65
2018-08-16T06:22:10.356Z,77.46
2018-08-16T06:27:05.161Z,77.64
2018-08-16T06:31:59.864Z,78.02
2018-08-16T06:36:54.762Z,77.28
2018-08-16T06:41:49.553Z,78.17
2018-08-16T06:46:44.503Z,77.22
2018-08-16T06:51:39.353Z,75.77
2018-08-16T06:56:34.140Z,75.34
2018-08-16T07:01:28.954Z,73.04
2018-08-16T07:06:23.856Z,72.37
2018-08-16T07:11:18.554Z,71.38
2018-08-16T07:16:13.316Z,69.74
2018-08-16T07:21:08.044Z,68.20
2018-08-16T07:26:02.753Z,67.16
2018-08-16T07:30:57.535Z,65.36
2018-08-16T07:35:52.337Z,65.37
2018-08-16T07:40:47.763Z,62.38
2018-08-16T07:45:42.492Z,60.76
2018-08-16T07:50:37.180Z,59.56
2018-08-16T07:55:31.844Z,59.06
2018-08-16T08:00:26.576Z,58.67
2018-08-16T08:05:21.478Z,57.85
2018-08-16T08:10:16.184Z,57.16
2018-08-16T08:15:14.236Z,56.75
2018-08-16T08:20:12.292Z,56.40
2018-08-16T08:25:07.531Z,54.95
2018-08-16T08:30:02.449Z,55.59
2018-08-16T08:34:57.568Z,52.27
2018-08-16T08:39:52.381Z,55.50
2018-08-16T08:44:47.118Z,51.60
2018-08-16T08:49:41.814Z,53.46
2018-08-16T08:54:54.332Z,53.61
2018-08-16T08:59:49.577Z,52.04
2018-08-16T09:04:45.340Z,50.99
2018-08-16T09:09:49.915Z,50.22
2018-08-16T09:15:01.067Z,50.40
2018-08-16T09:19:55.785Z,51.43
2018-08-16T09:24:50.505Z,51.40
2018-08-16T09:32:31.660Z,48.12
2018-08-16T09:37:31.468Z,50.69
2018-08-16T09:42:26.373Z,48.32
2018-08-16T09:47:37.798Z,48.27
2018-08-16T09:52:33.982Z,47.79
2018-08-16T09:57:28.725Z,47.36
2018-08-16T10:02:23.507Z,43.59
2018-08-16T10:07:18.208Z,42.73
2018-08-16T10:12:12.844Z,44.87
2018-08-16T10:17:07.974Z,45.48
2018-08-16T10:22:02.536Z,43.29
2018-08-16T10:26:57.266Z,45.50
2018-08-16T10:31:51.901Z,41.37
2018-08-16T10:36:46.661Z,40.08
2018-08-16T10:41:41.731Z,41.63
2018-08-16T10:46:36.561Z,41.08
2018-08-16T10:51:31.239Z,38.17
2018-08-16T10:56:25.983Z,39.17
2018-08-16T11:01:20.654Z,42.95
2018-08-16T11:06:15.292Z,41.37
2018-08-16T11:11:10.031Z,40.17
2018-08-16T11:16:04.680Z,40.50
2018-08-16T11:20:59.417Z,39.82
2018-08-16T11:25:54.120Z,38.96
2018-08-16T11:30:48.975Z,38.59
2018-08-16T11:35:43.760Z,38.23
2018-08-16T11:40:38.540Z,37.98
2018-08-16T11:45:33.248Z,39.02
2018-08-16T11:50:27.959Z,37.34
2018-08-16T11:55:22.591Z,37.03
2018-08-16T12:00:17.324Z,37.52
2018-08-16T12:05:12.046Z,37.80
2018-08-16T12:10:07.564Z,36.23
2018-08-16T12:15:02.154Z,35.10
2018-08-16T12:19:56.782Z,35.24
2018-08-16T12:24:51.354Z,34.91
2018-08-16T12:29:46.138Z,34.31
2018-08-16T12:34:40.749Z,34.50
2018-08-16T12:39:35.335Z,34.90
2018-08-16T12:44:30.096Z,36.53
2018-08-16T12:49:24.786Z,35.28
2018-08-16T12:54:19.550Z,37.97
2018-08-16T12:59:14.138Z,36.89
2018-08-16T13:17:03.236Z,37.42
2018-08-16T13:21:57.816Z,39.30
2018-08-16T13:26:52.479Z,40.25
2018-08-16T13:31:47.116Z,39.96
2018-08-16T13:36:41.899Z,40.90
2018-08-16T13:41:36.609Z,39.52
2018-08-16T13:46:31.284Z,40.07
2018-08-16T13:51:25.876Z,38.51
2018-08-16T13:56:20.642Z,38.95
2018-08-16T14:01:15.249Z,39.20
2018-08-16T14:06:09.871Z,40.44
2018-08-16T14:11:04.548Z,39.22
2018-08-16T14:15:59.245Z,37.25
2018-08-16T14:20:53.911Z,38.66
2018-08-16T14:25:48.645Z,37.40
2018-08-16T14:30:43.508Z,38.09
2018-08-16T14:35:38.384Z,36.96
2018-08-16T14:40:33.055Z,39.92
2018-08-16T14:45:27.775Z,38.04
2018-08-16T14:50:22.554Z,35.88
2018-08-16T14:55:17.281Z,35.59
2018-08-16T15:00:12.028Z,36.42
2018-08-16T15:05:07.355Z,36.77
2018-08-16T15:10:01.959Z,36.80
2018-08-16T15:14:56.766Z,35.21
2018-08-16T15:19:51.378Z,34.27
2018-08-16T15:24:46.038Z,35.68
2018-08-16T15:29:40.639Z,35.57
2018-08-16T15:34:35.294Z,36.87
2018-08-16T15:39:30.015Z,37.02
2018-08-16T15:44:24.718Z,36.61
2018-08-16T15:49:19.329Z,35.29
2018-08-16T15:54:14.636Z,35.79
2018-08-16T15:59:09.459Z,35.79
2018-08-16T16:04:04.273Z,37.82
2018-08-16T16:08:59.009Z,37.15
2018-08-16T16:13:53.636Z,35.81
2018-08-16T16:18:48.476Z,37.16
2018-08-16T16:23:43.324Z,34.08
2018-08-16T16:28:38.164Z,37.42
2018-08-16T16:33:33.239Z,36.62
2018-08-16T16:38:28.300Z,36.81
2018-08-16T16:43:23.297Z,37.63
2018-08-16T16:48:18.142Z,37.99
2018-08-16T16:53:13.092Z,38.65
2018-08-16T16:58:08.299Z,40.96
2018-08-16T17:03:03.386Z,38.78
2018-08-16T17:07:58.332Z,41.29
2018-08-16T17:12:53.160Z,43.95
2018-08-16T17:17:47.949Z,42.44
2018-08-16T17:22:43.785Z,43.21
2018-08-16T17:27:38.627Z,40.79
2018-08-16T17:32:33.339Z,45.19
2018-08-16T17:37:28.495Z,41.72
2018-08-16T17:42:23.216Z,45.13
2018-08-16T17:47:18.563Z,46.70
2018-08-16T17:52:13.828Z,49.85
2018-08-16T17:57:08.533Z,48.13
2018-08-16T18:02:03.417Z,50.34
2018-08-16T18:06:58.627Z,50.84
2018-08-16T18:11:53.459Z,50.89
2018-08-16T18:16:48.306Z,51.13
2018-08-16T18:21:43.096Z,51.74
2018-08-16T18:26:37.866Z,51.17
2018-08-16T18:36:51.866Z,52.17
2018-08-16T18:41:47.779Z,53.84
2018-08-16T18:46:42.633Z,53.14
2018-08-16T18:51:37.858Z,53.68
2018-08-16T18:56:32.620Z,54.78
2018-08-16T19:01:27.506Z,55.14
2018-08-16T19:06:22.289Z,55.12
2018-08-16T19:11:17.086Z,54.52
2018-08-16T19:16:11.804Z,55.67
2018-08-16T19:21:06.590Z,54.54
2018-08-16T19:26:01.395Z,54.60
2018-08-16T19:30:56.171Z,54.70
2018-08-16T19:35:51.193Z,54.27
2018-08-16T19:40:46.020Z,55.06
2018-08-16T19:45:40.711Z,55.04
2018-08-16T19:50:35.565Z,55.24
2018-08-16T19:55:30.367Z,56.00
2018-08-16T20:00:25.088Z,56.08
2018-08-16T20:05:19.768Z,56.91
2018-08-16T20:10:18.604Z,58.33
2018-08-16T20:15:13.286Z,59.37
2018-08-16T20:20:08.841Z,60.64
2018-08-16T20:25:03.684Z,61.83
2018-08-16T20:35:02.313Z,63.53
2018-08-16T20:39:57.917Z,63.62
2018-08-16T20:44:52.736Z,62.81
2018-08-16T20:49:47.552Z,63.31
2018-08-16T20:54:42.249Z,62.96
2018-08-16T20:59:36.957Z,61.92
2018-08-16T21:04:31.714Z,63.06
2018-08-16T21:09:26.467Z,62.04
2018-08-16T21:14:21.219Z,60.29
2018-08-16T21:19:15.945Z,61.04
2018-08-16T21:24:10.728Z,60.33
2018-08-16T21:29:05.541Z,60.82
2018-08-16T21:34:00.372Z,60.53
2018-08-16T21:38:55.081Z,60.99
2018-08-16T21:43:49.803Z,59.74
2018-08-16T21:48:44.505Z,61.66
2018-08-16T21:53:39.216Z,61.30
2018-08-16T21:58:33.937Z,61.12
2018-08-16T22:03:29.296Z,62.39
2018-08-16T22:08:24.816Z,62.10
2018-08-16T22:13:19.617Z,60.94
2018-08-16T22:18:14.376Z,61.91
2018-08-16T22:23:09.121Z,63.28
2018-08-16T22:28:03.963Z,62.69
2018-08-16T22:32:58.708Z,62.44
2018-08-16T22:37:53.635Z,63.04
2018-08-16T22:42:48.306Z,61.26
2018-08-16T22:47:43.048Z,61.80
2018-08-16T22:52:38.410Z,62.17
2018-08-16T22:57:33.107Z,62.50
2018-08-16T23:02:27.857Z,62.40
2018-08-16T23:07:22.528Z,63.85
2018-08-16T23:12:17.263Z,63.50
2018-08-16T23:17:12.038Z,65.48
2018-08-16T23:22:06.860Z,64.26
2018-08-16T23:27:01.653Z,64.44
2018-08-16T23:31:56.411Z,65.85
2018-08-16T23:36:51.160Z,66.17
2018-08-16T23:41:45.865Z,66.14
2018-08-16T23:46:40.631Z,66.54
2018-08-16T23:51:35.357Z,66.69
2018-08-16T23:56:30.092Z,66.66
